createdAt,value
2022-08-24T00:03:03.157Z,3.00
2022-08-24T00:08:03.008Z,2.90
2022-08-24T00:13:02.825Z,3.00
2022-08-24T00:18:02.863Z,3.00
2022-08-24T00:23:02.724Z,2.80
2022-08-24T00:28:02.769Z,2.90
2022-08-24T00:33:02.621Z,3.00
2022-08-24T00:38:09.614Z,4.00
2022-08-24T00:43:02.598Z,2.80
2022-08-24T00:48:02.585Z,3.40
2022-08-24T00:53:02.400Z,2.80
2022-08-24T00:58:02.488Z,2.90
2022-08-24T01:03:02.286Z,2.90
2022-08-24T01:08:02.401Z,2.90
2022-08-24T01:13:02.186Z,4.10
2022-08-24T01:18:02.275Z,3.00
2022-08-24T01:23:02.138Z,2.70
2022-08-24T01:28:02.146Z,3.20
2022-08-24T01:33:01.969Z,3.10
2022-08-24T01:38:02.132Z,3.00
2022-08-24T01:43:01.866Z,2.90
2022-08-24T01:48:01.966Z,2.90
2022-08-24T01:53:05.451Z,3.20
2022-08-24T01:58:02.727Z,2.70
2022-08-24T02:03:01.848Z,3.00
2022-08-24T02:08:01.577Z,3.10
2022-08-24T02:13:01.603Z,3.40
2022-08-24T02:18:01.560Z,3.20
2022-08-24T02:23:01.708Z,3.20
2022-08-24T02:28:01.391Z,3.20
2022-08-24T02:33:01.360Z,4.20
2022-08-24T02:38:01.267Z,3.60
2022-08-24T02:43:01.198Z,3.60
2022-08-24T02:48:01.170Z,3.70
2022-08-24T02:53:01.100Z,3.30
2022-08-24T02:58:01.037Z,3.40
2022-08-24T03:03:01.136Z,2.90
2022-08-24T03:08:00.971Z,3.50
2022-08-24T03:13:01.120Z,3.20
2022-08-24T03:18:00.830Z,3.30
2022-08-24T03:23:00.769Z,3.00
2022-08-24T03:28:00.807Z,3.50
2022-08-24T03:33:02.944Z,3.20
2022-08-24T03:38:00.678Z,3.70
2022-08-24T03:43:00.548Z,3.60
2022-08-24T03:48:00.611Z,3.30
2022-08-24T03:53:00.438Z,3.80
2022-08-24T03:58:00.386Z,3.30
2022-08-24T04:03:00.342Z,3.50
2022-08-24T04:08:00.306Z,3.60
2022-08-24T04:13:00.240Z,4.10
2022-08-24T04:18:00.229Z,3.70
2022-08-24T04:23:00.234Z,3.60
2022-08-24T04:28:00.072Z,3.90
2022-08-24T04:33:00.078Z,3.30
2022-08-24T04:37:59.958Z,3.80
2022-08-24T04:42:59.937Z,4.30
2022-08-24T04:47:59.861Z,3.90
2022-08-24T04:52:59.937Z,4.70
2022-08-24T04:57:59.756Z,4.30
2022-08-24T05:02:59.810Z,3.90
2022-08-24T05:07:59.709Z,3.50
2022-08-24T05:12:59.619Z,3.90
2022-08-24T05:17:59.522Z,3.80
2022-08-24T05:23:02.475Z,3.50
2022-08-24T05:28:00.417Z,3.40
2022-08-24T05:32:59.348Z,4.10
2022-08-24T05:37:59.326Z,3.70
2022-08-24T05:42:59.273Z,4.20
2022-08-24T05:47:59.197Z,3.90
2022-08-24T05:52:59.194Z,3.70
2022-08-24T05:57:59.091Z,3.70
2022-08-24T06:02:59.891Z,4.00
2022-08-24T06:07:59.062Z,3.70
2022-08-24T06:12:58.942Z,3.10
2022-08-24T06:17:58.904Z,3.30
2022-08-24T06:22:58.841Z,4.90
2022-08-24T06:27:58.750Z,3.10
2022-08-24T06:32:58.766Z,3.60
2022-08-24T06:37:58.664Z,3.20
2022-08-24T06:42:58.653Z,3.50
2022-08-24T06:47:58.560Z,3.20
2022-08-24T06:52:58.490Z,3.10
2022-08-24T06:57:58.432Z,3.20
2022-08-24T07:02:58.512Z,3.50
2022-08-24T07:07:58.342Z,2.90
2022-08-24T07:12:58.363Z,3.00
2022-08-24T07:17:58.236Z,3.30
2022-08-24T07:22:58.243Z,2.50
2022-08-24T07:27:58.132Z,2.80
2022-08-24T07:32:58.071Z,2.60
2022-08-24T07:37:58.085Z,2.50
2022-08-24T07:42:57.972Z,2.40
2022-08-24T07:48:05.350Z,2.70
2022-08-24T07:52:58.863Z,2.40
2022-08-24T07:57:57.815Z,2.70
2022-08-24T08:02:57.812Z,2.30
2022-08-24T08:07:57.715Z,2.60
2022-08-24T08:12:57.675Z,2.80
2022-08-24T08:17:57.697Z,2.60
2022-08-24T08:22:57.552Z,2.40
2022-08-24T08:28:04.281Z,2.90
2022-08-24T08:32:58.481Z,2.70
2022-08-24T08:37:57.413Z,2.70
2022-08-24T08:42:57.349Z,2.40
2022-08-24T08:47:57.353Z,2.20
2022-08-24T08:52:57.303Z,2.70
2022-08-24T08:57:57.204Z,2.50
2022-08-24T09:02:57.178Z,2.20
2022-08-24T09:07:57.199Z,2.70
2022-08-24T09:12:57.080Z,2.70
2022-08-24T09:17:57.027Z,2.70
2022-08-24T09:22:56.988Z,2.90
2022-08-24T09:27:56.941Z,2.60
2022-08-24T09:32:56.899Z,2.60
2022-08-24T09:37:56.858Z,2.50
2022-08-24T09:42:56.808Z,2.50
2022-08-24T09:47:56.756Z,2.50
2022-08-24T09:52:56.718Z,2.20
2022-08-24T09:58:00.952Z,2.30
2022-08-24T10:02:56.596Z,2.20
2022-08-24T10:07:56.574Z,2.80
2022-08-24T10:12:56.749Z,2.90
2022-08-24T10:17:56.483Z,2.20
2022-08-24T10:22:56.452Z,2.30
2022-08-24T10:27:56.384Z,2.60
2022-08-24T10:32:56.340Z,2.20
2022-08-24T10:37:56.306Z,2.50
2022-08-24T10:42:56.254Z,2.20
2022-08-24T10:47:56.226Z,2.70
2022-08-24T10:52:56.185Z,2.60
2022-08-24T10:57:56.147Z,2.90
2022-08-24T11:02:56.085Z,2.40
2022-08-24T11:07:56.050Z,2.50
2022-08-24T11:12:56.013Z,2.80
2022-08-24T11:17:55.982Z,2.90
2022-08-24T11:22:55.936Z,2.30
2022-08-24T11:27:55.879Z,2.60
2022-08-24T11:32:55.834Z,2.40
2022-08-24T11:37:55.779Z,2.70
2022-08-24T11:42:55.731Z,2.50
2022-08-24T11:47:55.715Z,2.40
2022-08-24T11:52:55.662Z,2.50
2022-08-24T11:57:55.626Z,2.70
2022-08-24T12:02:55.703Z,2.70
2022-08-24T12:07:55.549Z,2.50
2022-08-24T12:12:55.509Z,2.60
2022-08-24T12:17:55.451Z,2.40
2022-08-24T12:22:55.421Z,2.20
2022-08-24T12:27:55.390Z,2.80
2022-08-24T12:32:55.342Z,2.70
2022-08-24T12:37:55.304Z,2.40
2022-08-24T12:43:04.114Z,2.40
2022-08-24T12:47:55.196Z,2.70
2022-08-24T12:52:55.166Z,2.50
2022-08-24T12:57:55.129Z,2.70
2022-08-24T13:02:55.089Z,3.10
2022-08-24T13:07:55.016Z,2.60
2022-08-24T13:12:54.975Z,2.70
2022-08-24T13:17:58.835Z,2.80
2022-08-24T13:22:55.900Z,2.80
2022-08-24T13:27:54.850Z,3.30
2022-08-24T13:32:54.818Z,2.60
2022-08-24T13:37:54.809Z,2.50
2022-08-24T13:42:54.731Z,2.70
2022-08-24T13:47:54.681Z,2.20
2022-08-24T13:52:54.620Z,2.30
2022-08-24T13:57:54.585Z,2.50
2022-08-24T14:02:54.534Z,2.40
2022-08-24T14:07:54.483Z,2.50
2022-08-24T14:12:54.456Z,2.80
2022-08-24T14:17:55.698Z,2.60
2022-08-24T14:22:54.361Z,2.90
2022-08-24T14:27:54.321Z,2.40
2022-08-24T14:32:54.258Z,2.60
2022-08-24T14:37:56.909Z,2.20
2022-08-24T14:42:54.168Z,2.30
2022-08-24T14:47:54.144Z,2.90
2022-08-24T14:52:54.107Z,2.60
2022-08-24T14:57:54.031Z,2.40
2022-08-24T15:02:54.001Z,2.10
2022-08-24T15:07:53.976Z,2.60
2022-08-24T15:12:53.901Z,2.50
2022-08-24T15:17:53.856Z,2.80
2022-08-24T15:22:53.835Z,2.20
2022-08-24T15:27:53.739Z,2.50
2022-08-24T15:32:53.693Z,2.60
2022-08-24T15:37:53.643Z,2.30
2022-08-24T15:42:53.591Z,2.50
2022-08-24T15:47:53.547Z,2.50
2022-08-24T15:52:53.485Z,2.30
2022-08-24T15:57:53.466Z,2.70
2022-08-24T16:02:53.462Z,2.80
2022-08-24T16:07:53.336Z,2.70
2022-08-24T16:12:53.332Z,2.40
2022-08-24T16:17:53.243Z,2.40
2022-08-24T16:22:57.102Z,2.40
2022-08-24T16:27:54.155Z,2.60
2022-08-24T16:32:53.622Z,2.60
2022-08-24T16:37:53.023Z,2.70
2022-08-24T16:42:53.060Z,2.50
2022-08-24T16:47:52.924Z,2.70
2022-08-24T16:52:52.876Z,2.30
2022-08-24T16:57:52.809Z,3.20
2022-08-24T17:02:52.783Z,2.60
2022-08-24T17:07:52.852Z,2.90
2022-08-24T17:13:02.221Z,2.30
2022-08-24T17:17:52.640Z,2.60
2022-08-24T17:22:52.560Z,2.50
2022-08-24T17:27:52.730Z,2.70
2022-08-24T17:32:52.451Z,2.50
2022-08-24T17:37:52.452Z,2.40
2022-08-24T17:42:52.390Z,2.30
2022-08-24T17:47:52.518Z,2.50
2022-08-24T17:52:58.871Z,2.70
2022-08-24T17:57:53.304Z,2.70
2022-08-24T18:02:52.208Z,2.70
2022-08-24T18:07:54.207Z,2.70
2022-08-24T18:12:54.229Z,2.80
2022-08-24T18:17:51.992Z,3.00
2022-08-24T18:22:53.815Z,2.50
2022-08-24T18:27:51.885Z,2.40
2022-08-24T18:32:51.835Z,2.30
2022-08-24T18:37:51.768Z,2.40
2022-08-24T18:42:51.789Z,2.30
2022-08-24T18:47:53.375Z,2.50
2022-08-24T18:52:51.658Z,2.20
2022-08-24T18:57:51.603Z,2.70
2022-08-24T19:02:51.659Z,2.50
2022-08-24T19:07:51.565Z,2.80
2022-08-24T19:12:51.398Z,2.70
2022-08-24T19:17:51.352Z,2.60
2022-08-24T19:22:51.290Z,2.70
2022-08-24T19:27:53.773Z,2.70
2022-08-24T19:32:51.229Z,3.30
2022-08-24T19:37:51.140Z,3.50
2022-08-24T19:42:51.127Z,4.70
2022-08-24T19:47:51.100Z,3.70
2022-08-24T19:52:50.965Z,3.00
2022-08-24T19:57:50.927Z,3.20
2022-08-24T20:02:50.876Z,3.10
2022-08-24T20:07:50.859Z,3.20
2022-08-24T20:12:50.788Z,3.20
2022-08-24T20:17:50.705Z,3.10
2022-08-24T20:22:50.755Z,3.60
2022-08-24T20:27:58.223Z,3.50
2022-08-24T20:32:51.944Z,3.30
2022-08-24T20:37:50.648Z,3.60
2022-08-24T20:42:50.518Z,3.00
2022-08-24T20:47:50.402Z,3.60
2022-08-24T20:52:50.374Z,3.20
2022-08-24T20:57:51.311Z,3.60
2022-08-24T21:02:50.356Z,3.40
2022-08-24T21:07:50.584Z,3.90
2022-08-24T21:12:50.114Z,3.90
2022-08-24T21:17:50.055Z,3.90
2022-08-24T21:22:50.120Z,4.40
2022-08-24T21:27:49.945Z,4.30
2022-08-24T21:32:49.962Z,4.20
2022-08-24T21:37:49.832Z,3.90
2022-08-24T21:42:49.955Z,3.90
2022-08-24T21:47:49.884Z,3.40
2022-08-24T21:52:51.179Z,3.50
2022-08-24T21:57:49.618Z,3.30
2022-08-24T22:02:49.622Z,3.00
2022-08-24T22:07:49.654Z,3.10
2022-08-24T22:12:49.504Z,3.20
2022-08-24T22:17:52.600Z,3.40
2022-08-24T22:22:49.480Z,3.20
2022-08-24T22:27:49.397Z,3.50
2022-08-24T22:32:49.255Z,3.60
2022-08-24T22:37:49.189Z,3.60
2022-08-24T22:42:49.129Z,3.50
2022-08-24T22:47:50.187Z,3.20
2022-08-24T22:52:49.106Z,2.90
2022-08-24T22:57:49.926Z,3.70
2022-08-24T23:02:49.103Z,3.20
2022-08-24T23:07:48.857Z,3.10
2022-08-24T23:12:48.810Z,3.20
2022-08-24T23:17:48.749Z,3.00
2022-08-24T23:22:48.863Z,3.40
2022-08-24T23:27:57.614Z,2.80
2022-08-24T23:32:48.553Z,3.20
2022-08-24T23:37:48.505Z,2.70
2022-08-24T23:42:48.464Z,2.50
2022-08-24T23:47:48.409Z,2.50
2022-08-24T23:52:48.335Z,2.70
2022-08-24T23:57:48.281Z,2.60
